Time;durP1;ratioP1;P1;durP2;ratioP2;P2;SDS_P1;SDS_P2;PMS_P1;PMS_P2;Temp;Humidity;BMP_temperature;BMP_pressure;BME280_temperature;BME280_humidity;BME280_pressure;Samples;Min_cycle;Max_cycle;Signal;HPM_P1;HPM_P2
2023/10/15 00:00:15;;;;;;;5.93;0.80;;;6.20;99.90;;;;;;4944119;28;21111;-76
2023/10/15 00:02:41;;;;;;;7.57;1.15;;;6.20;99.90;;;;;;4981515;28;20057;-77
2023/10/15 00:05:17;;;;;;;5.63;0.80;;;6.20;99.90;;;;;;4962860;28;20513;-73
2023/10/15 00:07:43;;;;;;;5.88;1.33;;;6.20;99.90;;;;;;4967192;28;20057;-76
2023/10/15 00:10:10;;;;;;;4.22;1.00;;;6.20;99.90;;;;;;4967291;28;20118;-73
2023/10/15 00:12:40;;;;;;;4.70;0.90;;;6.20;99.90;;;;;;4949813;28;20526;-74
2023/10/15 00:15:08;;;;;;;7.68;1.02;;;6.20;99.90;;;;;;4964115;28;20042;-77
2023/10/15 00:17:34;;;;;;;4.15;0.90;;;6.30;99.90;;;;;;4970420;28;20100;-74
2023/10/15 00:20:00;;;;;;;8.57;1.20;;;6.40;99.90;;;;;;4957259;28;20077;-70
2023/10/15 00:22:26;;;;;;;3.90;1.10;;;6.40;99.90;;;;;;4959144;28;20062;-72
2023/10/15 00:24:52;;;;;;;4.25;1.02;;;6.40;99.90;;;;;;4960885;28;20141;-74
2023/10/15 00:27:20;;;;;;;5.70;0.88;;;6.50;99.90;;;;;;4965978;28;20043;-72
2023/10/15 00:29:45;;;;;;;7.55;1.00;;;6.50;99.90;;;;;;4955732;28;20058;-77
2023/10/15 00:32:12;;;;;;;2.80;0.75;;;6.50;99.90;;;;;;4957542;28;20031;-74
2023/10/15 00:34:38;;;;;;;2.63;0.60;;;6.40;99.90;;;;;;4958623;28;20370;-76
2023/10/15 00:37:04;;;;;;;3.35;0.60;;;6.50;99.90;;;;;;4963114;28;20049;-75
2023/10/15 00:39:30;;;;;;;2.60;0.63;;;6.40;99.90;;;;;;4964695;28;20035;-78
2023/10/15 00:41:56;;;;;;;6.30;0.80;;;6.40;99.90;;;;;;4983024;28;20093;-76
2023/10/15 00:44:22;;;;;;;7.10;1.05;;;6.40;99.90;;;;;;4963440;28;20054;-77
2023/10/15 00:46:54;;;;;;;5.57;0.80;;;6.30;99.90;;;;;;4966234;28;20049;-78
2023/10/15 00:49:24;;;;;;;5.70;0.90;;;6.40;99.90;;;;;;4963519;28;20038;-78
2023/10/15 00:51:52;;;;;;;5.13;0.63;;;6.30;99.90;;;;;;4943057;28;20054;-79
2023/10/15 00:54:18;;;;;;;4.93;1.20;;;6.30;99.90;;;;;;4961673;28;20034;-80
2023/10/15 00:56:46;;;;;;;5.30;0.70;;;6.30;99.90;;;;;;4962474;28;20086;-78
2023/10/15 00:59:19;;;;;;;5.85;0.93;;;6.30;99.90;;;;;;4963934;28;20042;-77
2023/10/15 01:01:53;;;;;;;7.43;0.93;;;6.30;99.90;;;;;;4965324;28;20103;-78
2023/10/15 01:04:25;;;;;;;2.33;0.98;;;6.30;99.90;;;;;;4963711;28;20057;-78
2023/10/15 01:06:52;;;;;;;4.28;0.98;;;6.30;99.90;;;;;;4963669;28;20470;-74
2023/10/15 01:09:19;;;;;;;6.35;0.80;;;6.30;99.90;;;;;;4961082;28;20043;-77
2023/10/15 01:14:47;;;;;;;2.72;0.68;;;6.30;99.90;;;;;;4945268;28;20426;-76
2023/10/15 01:17:13;;;;;;;4.07;0.80;;;6.30;99.90;;;;;;4966627;28;20043;-77
2023/10/15 01:19:39;;;;;;;3.95;0.73;;;6.30;99.90;;;;;;4962305;28;20157;-78
2023/10/15 01:22:10;;;;;;;6.07;1.58;;;6.30;99.90;;;;;;4966215;28;20101;-76
2023/10/15 01:24:38;;;;;;;4.50;0.70;;;6.40;99.90;;;;;;4964140;28;20339;-79
2023/10/15 01:27:09;;;;;;;4.28;0.80;;;6.30;99.90;;;;;;4960314;28;20038;-71
2023/10/15 01:29:38;;;;;;;3.80;1.08;;;6.40;99.90;;;;;;4976368;28;20335;-73
2023/10/15 01:32:10;;;;;;;3.25;1.00;;;6.40;99.90;;;;;;4969881;28;20084;-73
2023/10/15 01:34:45;;;;;;;4.70;1.10;;;6.30;99.90;;;;;;4973829;28;20128;-77
2023/10/15 01:39:48;;;;;;;6.07;0.80;;;6.30;99.90;;;;;;4961290;28;20497;-75
2023/10/15 01:42:42;;;;;;;1.58;0.60;;;6.30;99.90;;;;;;4976480;28;20060;-79
2023/10/15 01:45:15;;;;;;;3.47;0.80;;;6.20;99.90;;;;;;4957526;28;20053;-78
2023/10/15 01:50:15;;;;;;;5.38;1.25;;;6.20;99.90;;;;;;4967622;28;20042;-78
2023/10/15 01:52:44;;;;;;;5.20;0.68;;;6.10;99.90;;;;;;4959410;28;20039;-75
2023/10/15 01:55:12;;;;;;;5.68;0.70;;;6.10;99.90;;;;;;4958281;28;20034;-77
2023/10/15 01:57:39;;;;;;;7.10;0.90;;;6.00;99.90;;;;;;4965788;28;20043;-78
2023/10/15 02:00:33;;;;;;;2.10;0.60;;;6.00;99.90;;;;;;4956071;28;20125;-78
2023/10/15 02:02:58;;;;;;;4.13;1.00;;;6.00;99.90;;;;;;4958260;28;20093;-72
2023/10/15 02:05:29;;;;;;;2.53;0.68;;;6.00;99.90;;;;;;4958393;28;20097;-74
2023/10/15 02:07:56;;;;;;;4.20;0.80;;;6.00;99.90;;;;;;4967224;28;20113;-75
2023/10/15 02:10:28;;;;;;;3.33;0.70;;;6.00;99.90;;;;;;4965670;28;20114;-78
2023/10/15 02:13:04;;;;;;;3.05;1.00;;;6.00;99.90;;;;;;4987293;28;20046;-77
2023/10/15 02:15:33;;;;;;;3.72;0.70;;;5.90;99.90;;;;;;4970341;28;20350;-77
2023/10/15 02:18:01;;;;;;;3.37;0.73;;;6.00;99.90;;;;;;4948909;28;20138;-77
2023/10/15 02:20:47;;;;;;;3.50;1.08;;;6.10;99.90;;;;;;4960176;28;20477;-71
2023/10/15 02:23:18;;;;;;;1.25;0.57;;;6.10;99.90;;;;;;4963240;28;20065;-77
2023/10/15 02:25:56;;;;;;;5.85;0.73;;;6.10;99.90;;;;;;4970227;28;20050;-78
2023/10/15 02:28:24;;;;;;;3.17;0.57;;;6.10;99.90;;;;;;4963792;28;20057;-77
2023/10/15 02:30:50;;;;;;;1.60;0.50;;;6.00;99.90;;;;;;4964395;28;20048;-75
2023/10/15 02:33:17;;;;;;;4.45;0.70;;;5.90;99.90;;;;;;4955976;28;20043;-77
2023/10/15 02:35:47;;;;;;;3.42;0.70;;;5.80;99.90;;;;;;4961975;28;20148;-78
2023/10/15 02:38:13;;;;;;;2.65;0.80;;;5.80;99.90;;;;;;4966679;28;20035;-79
2023/10/15 02:43:25;;;;;;;1.92;0.55;;;5.80;99.90;;;;;;4978334;28;20051;-72
2023/10/15 02:45:51;;;;;;;1.65;0.40;;;5.70;99.90;;;;;;4948386;28;20394;-76
2023/10/15 02:48:19;;;;;;;4.43;1.00;;;5.70;99.90;;;;;;4966481;28;20053;-77
2023/10/15 02:50:59;;;;;;;3.08;1.10;;;5.70;99.90;;;;;;4959803;28;20516;-76
2023/10/15 02:53:33;;;;;;;5.25;0.70;;;5.80;99.90;;;;;;4965907;28;20038;-72
2023/10/15 02:55:59;;;;;;;3.72;0.90;;;5.80;99.90;;;;;;4964935;28;20034;-77
2023/10/15 02:58:28;;;;;;;3.05;0.90;;;5.70;99.90;;;;;;4986103;28;20100;-76
2023/10/15 03:00:59;;;;;;;4.28;0.60;;;5.90;99.90;;;;;;4961353;28;20074;-72
2023/10/15 03:03:33;;;;;;;4.75;0.80;;;5.80;99.90;;;;;;4963603;28;20042;-73
2023/10/15 03:05:59;;;;;;;4.25;0.80;;;5.90;99.90;;;;;;4964564;28;20057;-75
2023/10/15 03:08:31;;;;;;;3.00;0.80;;;6.00;99.90;;;;;;4967730;28;20116;-71
2023/10/15 03:11:14;;;;;;;1.90;0.52;;;6.00;99.90;;;;;;4966116;28;20065;-71
2023/10/15 03:13:55;;;;;;;3.60;0.70;;;6.10;99.90;;;;;;4970502;28;20042;-69
2023/10/15 03:16:21;;;;;;;3.65;0.60;;;6.20;99.90;;;;;;4966209;28;20575;-65
2023/10/15 03:18:48;;;;;;;1.73;0.50;;;6.10;99.90;;;;;;4969918;28;20077;-71
2023/10/15 03:21:25;;;;;;;4.57;0.65;;;6.20;99.90;;;;;;4964690;28;20050;-72
2023/10/15 03:23:55;;;;;;;2.45;0.80;;;6.20;99.90;;;;;;4984214;28;20121;-73
2023/10/15 03:26:22;;;;;;;;;;;6.00;99.90;;;;;;4951425;28;20121;-72
2023/10/15 03:28:51;;;;;;;2.50;0.50;;;6.00;99.90;;;;;;4968470;28;19933;-72
2023/10/15 03:31:25;;;;;;;2.05;0.38;;;5.90;99.90;;;;;;4967437;28;20030;-74
2023/10/15 03:34:47;;;;;;;2.65;0.60;;;5.80;99.90;;;;;;4963335;28;20097;-72
2023/10/15 03:36:49;;;;;;;3.75;0.63;;;5.70;99.90;;;;;;4953311;28;20474;-73
2023/10/15 03:39:16;;;;;;;1.92;0.57;;;5.60;99.90;;;;;;4968107;28;20502;-73
2023/10/15 03:41:43;;;;;;;4.10;0.63;;;5.50;99.90;;;;;;4963471;28;20133;-73
2023/10/15 03:44:11;;;;;;;3.10;0.60;;;5.40;99.90;;;;;;4967638;28;20196;-73
2023/10/15 03:46:37;;;;;;;1.42;0.40;;;5.50;99.90;;;;;;4963638;28;20045;-72
2023/10/15 03:49:07;;;;;;;1.38;0.63;;;5.40;99.90;;;;;;4958363;28;20445;-71
2023/10/15 03:51:48;;;;;;;4.47;0.70;;;5.50;99.90;;;;;;4942993;28;20042;-73
2023/10/15 03:54:14;;;;;;;1.70;0.60;;;5.40;99.90;;;;;;4955811;28;20068;-72
2023/10/15 03:56:43;;;;;;;5.97;0.60;;;5.50;99.90;;;;;;4958956;28;20042;-72
2023/10/15 03:59:11;;;;;;;3.15;0.55;;;5.60;99.90;;;;;;4971669;28;20050;-74
2023/10/15 04:01:42;;;;;;;1.67;0.82;;;5.60;99.90;;;;;;4959769;28;20038;-72
2023/10/15 04:04:09;;;;;;;;;;;5.60;99.90;;;;;;4971964;28;20489;-73
2023/10/15 04:06:35;;;;;;;7.28;0.93;;;5.80;99.90;;;;;;4972381;28;19918;-74
2023/10/15 04:11:46;;;;;;;5.05;1.02;;;5.70;99.90;;;;;;4958086;28;20064;-74
2023/10/15 04:14:17;;;;;;;1.83;0.57;;;5.60;99.90;;;;;;4958744;28;20081;-73
2023/10/15 04:16:44;;;;;;;3.22;0.68;;;5.60;99.90;;;;;;4958730;28;20465;-73
2023/10/15 04:19:10;;;;;;;4.25;0.63;;;5.70;99.90;;;;;;4957039;28;20133;-73
2023/10/15 04:21:39;;;;;;;3.17;0.80;;;5.70;99.90;;;;;;4959437;28;20124;-71
2023/10/15 04:24:06;;;;;;;2.70;0.70;;;5.90;99.90;;;;;;4962401;28;20039;-71
2023/10/15 04:26:35;;;;;;;3.65;0.68;;;5.90;99.90;;;;;;4965044;28;20374;-71
2023/10/15 04:29:15;;;;;;;2.83;0.55;;;5.80;99.90;;;;;;4948768;28;20038;-71
2023/10/15 04:31:41;;;;;;;3.22;0.60;;;5.90;99.90;;;;;;4950652;28;20049;-72
2023/10/15 04:34:10;;;;;;;2.70;0.68;;;5.80;99.90;;;;;;4948489;28;20095;-72
2023/10/15 04:36:40;;;;;;;5.55;1.10;;;5.90;99.90;;;;;;4969907;28;20038;-72
2023/10/15 04:39:12;;;;;;;;;;;5.90;99.90;;;;;;4958965;28;20070;-72
2023/10/15 04:41:37;;;;;;;4.90;0.70;;;5.90;99.90;;;;;;4978924;28;19932;-72
2023/10/15 04:44:04;;;;;;;1.33;0.60;;;5.90;99.90;;;;;;4969510;28;20042;-73
2023/10/15 04:46:40;;;;;;;4.65;0.70;;;6.00;99.90;;;;;;4970104;28;20043;-72
2023/10/15 04:49:07;;;;;;;5.18;0.63;;;6.00;99.90;;;;;;4980575;28;20047;-73
2023/10/15 04:51:42;;;;;;;2.65;0.70;;;6.00;99.90;;;;;;4958026;28;20149;-72
2023/10/15 04:54:08;;;;;;;2.67;0.60;;;5.90;99.90;;;;;;4964645;28;20042;-73
2023/10/15 04:56:34;;;;;;;3.25;0.55;;;5.70;99.90;;;;;;4971805;28;20042;-72
2023/10/15 04:58:59;;;;;;;9.88;1.02;;;5.70;99.90;;;;;;4965534;28;20382;-73
2023/10/15 05:01:25;;;;;;;1.50;0.60;;;5.60;99.90;;;;;;4972595;28;20046;-73
2023/10/15 05:03:51;;;;;;;1.40;0.52;;;5.50;99.90;;;;;;4973293;28;20134;-73
2023/10/15 05:06:16;;;;;;;3.22;0.57;;;5.50;99.90;;;;;;4970694;28;20038;-73
2023/10/15 05:08:45;;;;;;;2.60;0.73;;;5.60;99.90;;;;;;4990366;28;20112;-73
2023/10/15 05:11:12;;;;;;;2.30;0.43;;;5.60;99.90;;;;;;4980356;28;20042;-72
2023/10/15 05:13:42;;;;;;;2.65;0.75;;;5.70;99.90;;;;;;4961263;28;20046;-74
2023/10/15 05:16:08;;;;;;;4.70;0.70;;;5.80;99.90;;;;;;4977433;28;20459;-72
2023/10/15 05:18:34;;;;;;;2.47;0.70;;;5.90;99.90;;;;;;4968013;28;20065;-70
2023/10/15 05:21:00;;;;;;;3.70;0.90;;;5.90;99.90;;;;;;4967158;28;20051;-71
2023/10/15 05:23:26;;;;;;;4.18;0.60;;;5.90;99.90;;;;;;4971751;28;20104;-72
2023/10/15 05:25:54;;;;;;;4.30;0.80;;;6.00;99.90;;;;;;4971329;28;20487;-72
2023/10/15 05:28:20;;;;;;;3.88;0.57;;;5.90;99.90;;;;;;4969758;28;20042;-72
2023/10/15 05:30:46;;;;;;;3.95;0.47;;;5.90;99.90;;;;;;4968732;28;20056;-73
2023/10/15 05:33:12;;;;;;;3.75;0.60;;;5.90;99.90;;;;;;4969958;28;20038;-72
2023/10/15 05:35:38;;;;;;;3.00;0.70;;;5.90;99.90;;;;;;4971100;28;20108;-73
2023/10/15 05:38:08;;;;;;;4.55;0.70;;;5.80;99.90;;;;;;4969833;28;20050;-72
2023/10/15 05:40:35;;;;;;;4.38;0.70;;;5.80;99.90;;;;;;4958558;28;20038;-72
2023/10/15 05:43:00;;;;;;;1.90;0.55;;;5.70;99.90;;;;;;4968578;28;20035;-72
2023/10/15 05:45:26;;;;;;;1.50;0.60;;;5.70;99.90;;;;;;4982829;28;20035;-72
2023/10/15 05:47:52;;;;;;;3.72;0.55;;;5.70;99.90;;;;;;4965770;28;20042;-73
2023/10/15 05:50:17;;;;;;;2.28;0.70;;;5.70;99.90;;;;;;4970249;28;20466;-74
2023/10/15 05:52:43;;;;;;;3.10;0.50;;;5.70;99.90;;;;;;4974522;28;20476;-73
2023/10/15 05:55:11;;;;;;;2.45;0.40;;;5.60;99.90;;;;;;4970178;28;20042;-73
2023/10/15 05:57:37;;;;;;;4.32;0.80;;;5.60;99.90;;;;;;4973211;28;20165;-73
2023/10/15 06:00:17;;;;;;;3.65;1.48;;;5.60;99.90;;;;;;4965018;28;20374;-72
2023/10/15 06:02:47;;;;;;;;;;;5.60;99.90;;;;;;4973743;28;20149;-74
2023/10/15 06:05:13;;;;;;;5.28;0.60;;;5.60;99.90;;;;;;4965595;28;19922;-73
2023/10/15 06:07:43;;;;;;;6.32;0.52;;;5.70;99.90;;;;;;4970277;28;20042;-73
2023/10/15 06:10:11;;;;;;;3.88;0.50;;;5.60;99.90;;;;;;4963579;28;20073;-72
2023/10/15 06:12:41;;;;;;;2.55;0.80;;;5.60;99.90;;;;;;4965793;28;20069;-72
2023/10/15 06:15:08;;;;;;;2.08;0.73;;;5.60;99.90;;;;;;4948103;28;20116;-71
2023/10/15 06:17:34;;;;;;;3.92;0.55;;;5.60;99.90;;;;;;4969301;28;20042;-74
2023/10/15 06:20:12;;;;;;;3.00;0.88;;;5.60;99.90;;;;;;4970807;28;20062;-74
2023/10/15 06:22:39;;;;;;;3.53;0.70;;;5.70;99.90;;;;;;4963570;28;20084;-74
2023/10/15 06:25:08;;;;;;;2.65;0.50;;;5.80;99.90;;;;;;4974837;28;20060;-73
2023/10/15 06:27:35;;;;;;;2.53;0.60;;;5.90;99.90;;;;;;4956670;28;20141;-72
2023/10/15 06:30:05;;;;;;;5.25;0.60;;;5.80;99.90;;;;;;4972044;28;20038;-72
2023/10/15 06:32:31;;;;;;;4.70;0.73;;;5.80;99.90;;;;;;4973113;28;20121;-73
2023/10/15 06:34:57;;;;;;;1.83;0.50;;;5.90;99.90;;;;;;4970884;28;20450;-70
2023/10/15 06:37:22;;;;;;;3.65;0.60;;;6.00;99.90;;;;;;4970778;28;20046;-70
2023/10/15 06:39:48;;;;;;;4.63;1.10;;;6.00;99.90;;;;;;4967804;28;20156;-75
2023/10/15 06:42:13;;;;;;;4.13;0.60;;;6.00;99.90;;;;;;4971959;28;20038;-73
2023/10/15 06:44:39;;;;;;;2.28;0.60;;;6.00;99.90;;;;;;4970928;28;20181;-72
2023/10/15 06:47:05;;;;;;;2.60;0.82;;;6.10;99.90;;;;;;4968859;28;20046;-73
2023/10/15 06:49:30;;;;;;;4.65;0.80;;;6.10;99.90;;;;;;4970449;28;20038;-73
2023/10/15 06:51:56;;;;;;;5.57;0.63;;;6.10;99.90;;;;;;4969404;28;20097;-71
2023/10/15 06:54:21;;;;;;;2.55;0.60;;;6.10;99.90;;;;;;4969077;28;20035;-73
2023/10/15 06:56:47;;;;;;;5.10;0.70;;;6.10;99.90;;;;;;4965153;28;20042;-72
2023/10/15 06:59:12;;;;;;;3.65;0.50;;;6.10;99.90;;;;;;4968890;28;20039;-72
2023/10/15 07:01:38;;;;;;;3.85;0.70;;;6.20;99.90;;;;;;4968389;28;20030;-72
2023/10/15 07:04:07;;;;;;;4.53;0.90;;;6.30;99.90;;;;;;4968608;28;20362;-68
2023/10/15 07:06:33;;;;;;;5.88;0.90;;;6.40;99.90;;;;;;4971798;28;20062;-67
2023/10/15 07:08:59;;;;;;;3.03;0.60;;;6.30;99.90;;;;;;4971074;28;20049;-66
2023/10/15 07:11:26;;;;;;;2.63;0.77;;;6.50;99.90;;;;;;4964886;28;20038;-67
2023/10/15 07:13:52;;;;;;;1.40;0.68;;;6.40;99.90;;;;;;4969419;28;20053;-67
2023/10/15 07:16:19;;;;;;;3.13;0.65;;;6.40;99.90;;;;;;4967640;28;20133;-68
2023/10/15 07:18:45;;;;;;;1.10;0.63;;;6.20;99.90;;;;;;4975740;28;20055;-67
2023/10/15 07:21:11;;;;;;;9.13;2.35;;;6.40;99.90;;;;;;4967607;28;20435;-68
2023/10/15 07:23:37;;;;;;;4.03;0.90;;;6.30;99.90;;;;;;4969774;28;20033;-69
2023/10/15 07:26:03;;;;;;;1.95;0.60;;;6.20;99.90;;;;;;4986038;28;20050;-69
2023/10/15 07:28:29;;;;;;;2.78;0.52;;;6.00;99.90;;;;;;4972386;28;20042;-68
2023/10/15 07:30:55;;;;;;;1.80;0.63;;;6.20;99.90;;;;;;4968235;28;20042;-68
2023/10/15 07:33:21;;;;;;;2.47;0.40;;;6.20;99.90;;;;;;4970935;28;20042;-68
2023/10/15 07:35:48;;;;;;;0.88;0.50;;;6.20;99.90;;;;;;4950895;28;20629;-71
2023/10/15 07:38:14;;;;;;;4.50;0.90;;;6.40;99.90;;;;;;4986331;28;20077;-67
2023/10/15 07:40:40;;;;;;;2.92;0.85;;;6.50;99.90;;;;;;4968412;28;20198;-67
2023/10/15 07:43:08;;;;;;;0.75;0.70;;;6.60;99.90;;;;;;4969850;28;20100;-66
2023/10/15 07:45:35;;;;;;;2.78;0.55;;;6.50;99.90;;;;;;4969800;28;20401;-66
2023/10/15 07:48:02;;;;;;;4.00;0.60;;;6.30;99.90;;;;;;4964455;28;20045;-64
2023/10/15 07:50:34;;;;;;;5.15;0.47;;;6.10;99.90;;;;;;4956615;28;20786;-67
2023/10/15 07:53:00;;;;;;;4.68;0.63;;;6.00;99.90;;;;;;4961038;28;20038;-66
2023/10/15 07:55:26;;;;;;;1.60;0.57;;;6.10;99.90;;;;;;4976048;28;20116;-66
2023/10/15 07:57:52;;;;;;;1.10;0.40;;;6.40;99.90;;;;;;4969850;28;20565;-66
2023/10/15 08:00:30;;;;;;;4.15;0.57;;;6.50;99.90;;;;;;4965736;28;20045;-65
2023/10/15 08:02:58;;;;;;;1.55;0.40;;;6.20;99.90;;;;;;4965846;28;20042;-66
2023/10/15 08:05:25;;;;;;;2.30;0.70;;;5.90;99.90;;;;;;4970903;28;20429;-66
2023/10/15 08:07:51;;;;;;;1.35;0.80;;;5.90;99.90;;;;;;4972607;28;20620;-66
2023/10/15 08:10:20;;;;;;;2.15;0.90;;;6.30;99.90;;;;;;4970267;28;20482;-67
2023/10/15 08:12:50;;;;;;;2.30;0.60;;;6.10;99.90;;;;;;5005542;28;20069;-67
2023/10/15 08:15:16;;;;;;;1.80;0.40;;;6.10;99.90;;;;;;4969666;28;20060;-68
2023/10/15 08:17:42;;;;;;;4.25;0.60;;;6.20;99.90;;;;;;4971931;28;20355;-68
2023/10/15 08:20:09;;;;;;;1.58;0.50;;;6.20;99.90;;;;;;4974665;28;20517;-68
2023/10/15 08:22:43;;;;;;;2.80;0.68;;;5.70;99.90;;;;;;4958329;28;20042;-68
2023/10/15 08:25:21;;;;;;;1.27;0.52;;;5.80;99.90;;;;;;4966543;28;20047;-68
2023/10/15 08:27:47;;;;;;;5.10;0.68;;;6.10;99.90;;;;;;4962550;28;20050;-67
2023/10/15 08:30:14;;;;;;;2.50;0.50;;;6.10;99.90;;;;;;4975108;28;20107;-68
2023/10/15 08:32:40;;;;;;;1.88;0.50;;;6.00;99.90;;;;;;4967235;28;20055;-68
2023/10/15 08:35:08;;;;;;;1.95;0.52;;;6.10;99.90;;;;;;4962032;28;20458;-68
2023/10/15 08:37:35;;;;;;;3.58;0.57;;;6.60;99.90;;;;;;4965670;28;20038;-68
2023/10/15 08:40:04;;;;;;;1.65;0.63;;;7.10;99.90;;;;;;4970147;28;20051;-68
2023/10/15 08:42:36;;;;;;;4.90;0.73;;;7.10;99.90;;;;;;4969483;28;20133;-68
2023/10/15 08:45:05;;;;;;;1.83;0.47;;;7.10;99.90;;;;;;4970108;28;20338;-69
2023/10/15 08:47:33;;;;;;;2.45;0.50;;;6.70;99.90;;;;;;4971006;28;20047;-68
2023/10/15 08:49:59;;;;;;;3.58;0.60;;;7.00;99.90;;;;;;4969351;28;20041;-69
2023/10/15 08:52:30;;;;;;;0.98;0.47;;;7.10;99.90;;;;;;4972569;28;20119;-69
2023/10/15 08:54:59;;;;;;;4.57;0.75;;;7.20;99.90;;;;;;4968387;28;20043;-68
2023/10/15 08:57:25;;;;;;;2.35;0.52;;;7.20;99.90;;;;;;4952334;28;20126;-69
2023/10/15 08:59:53;;;;;;;2.67;0.60;;;7.20;99.90;;;;;;4966734;28;20038;-69
2023/10/15 09:02:19;;;;;;;2.03;0.50;;;7.50;99.90;;;;;;4953950;28;20046;-69
2023/10/15 09:04:45;;;;;;;3.20;0.60;;;7.60;99.90;;;;;;4967432;28;20121;-69
2023/10/15 09:07:17;;;;;;;6.35;0.80;;;7.90;99.90;;;;;;4965044;28;20034;-67
2023/10/15 09:09:42;;;;;;;4.63;0.45;;;8.20;99.90;;;;;;4970759;28;20448;-69
2023/10/15 09:12:12;;;;;;;3.50;0.68;;;8.10;99.90;;;;;;4984799;28;20041;-70
2023/10/15 09:14:45;;;;;;;4.50;0.70;;;8.10;99.90;;;;;;4969859;28;20407;-70
2023/10/15 09:17:11;;;;;;;3.58;0.70;;;8.30;99.90;;;;;;4969615;28;20113;-71
2023/10/15 09:19:38;;;;;;;4.32;0.55;;;8.30;99.90;;;;;;4964986;28;20047;-70
2023/10/15 09:22:14;;;;;;;3.25;0.60;;;8.30;99.90;;;;;;4969314;28;20113;-70
2023/10/15 09:24:49;;;;;;;5.47;0.75;;;8.50;99.90;;;;;;4985867;28;20057;-69
2023/10/15 09:27:15;;;;;;;2.35;0.63;;;8.50;99.90;;;;;;4966946;28;20107;-71
2023/10/15 09:29:43;;;;;;;3.15;0.70;;;8.70;99.90;;;;;;4966979;28;20153;-70
2023/10/15 09:32:09;;;;;;;2.17;0.52;;;8.90;99.90;;;;;;4949444;28;20150;-70
2023/10/15 09:34:38;;;;;;;4.07;0.73;;;8.80;99.90;;;;;;4951382;28;20042;-69
2023/10/15 09:37:08;;;;;;;5.57;0.70;;;9.00;99.90;;;;;;4968468;28;20109;-67
2023/10/15 09:39:34;;;;;;;10.48;0.90;;;8.90;99.90;;;;;;4965473;28;20054;-68
2023/10/15 09:42:02;;;;;;;4.00;0.60;;;8.90;99.90;;;;;;4964554;28;20058;-68
2023/10/15 09:44:28;;;;;;;4.72;0.95;;;8.50;99.90;;;;;;4960659;28;20126;-69
2023/10/15 09:46:54;;;;;;;2.92;0.57;;;8.50;99.90;;;;;;4967257;28;20054;-69
2023/10/15 09:49:20;;;;;;;3.38;0.70;;;8.70;99.90;;;;;;4966052;28;20038;-70
2023/10/15 09:51:47;;;;;;;5.13;0.90;;;8.80;99.90;;;;;;4954912;28;20041;-70
2023/10/15 09:54:14;;;;;;;4.20;0.60;;;8.80;99.90;;;;;;4954712;28;20035;-69
2023/10/15 09:56:41;;;;;;;5.63;0.82;;;8.70;99.90;;;;;;4969492;28;20062;-70
2023/10/15 09:59:10;;;;;;;4.95;0.90;;;8.60;99.90;;;;;;4966842;28;20195;-71
2023/10/15 10:01:44;;;;;;;6.47;0.60;;;8.80;99.90;;;;;;4979609;28;20050;-70
2023/10/15 10:04:43;;;;;;;4.38;0.82;;;8.90;99.90;;;;;;4960570;28;20043;-70
2023/10/15 10:07:19;;;;;;;5.95;0.82;;;8.80;99.90;;;;;;4982700;28;20046;-70
2023/10/15 10:09:56;;;;;;;5.22;0.90;;;8.70;99.90;;;;;;4970198;28;20134;-71
2023/10/15 10:12:22;;;;;;;2.47;0.70;;;8.70;99.90;;;;;;4970687;28;20039;-71
2023/10/15 10:15:25;;;;;;;2.17;0.68;;;8.70;99.90;;;;;;4961975;28;20043;-71
2023/10/15 10:17:52;;;;;;;6.78;0.90;;;8.80;99.90;;;;;;4966066;28;20406;-72
2023/10/15 10:20:19;;;;;;;3.85;0.82;;;8.70;99.90;;;;;;4962782;28;20309;-71
2023/10/15 10:23:04;;;;;;;4.00;0.60;;;8.80;99.90;;;;;;4967719;28;20149;-71
2023/10/15 10:25:39;;;;;;;3.55;0.80;;;8.90;99.90;;;;;;4961244;28;20406;-72
2023/10/15 10:28:10;;;;;;;3.13;0.73;;;8.80;99.90;;;;;;4961711;28;20043;-72
2023/10/15 10:30:37;;;;;;;2.20;0.75;;;8.80;99.90;;;;;;4949931;28;20047;-73
2023/10/15 10:33:03;;;;;;;5.00;0.95;;;8.80;99.90;;;;;;4958779;28;20047;-71
2023/10/15 10:35:44;;;;;;;4.75;0.75;;;8.90;99.90;;;;;;4964677;28;20030;-70
2023/10/15 10:38:16;;;;;;;;;;;9.00;99.90;;;;;;4978635;28;20038;-72
2023/10/15 10:40:56;;;;;;;4.18;0.80;;;8.80;99.90;;;;;;4969662;28;19925;-72
2023/10/15 10:43:27;;;;;;;5.68;0.80;;;8.90;99.90;;;;;;4951338;28;20041;-72
2023/10/15 10:45:53;;;;;;;7.47;1.05;;;8.90;99.90;;;;;;4968170;28;20043;-72
2023/10/15 10:48:33;;;;;;;3.13;1.08;;;8.90;99.90;;;;;;4963368;28;20085;-72
2023/10/15 10:51:30;;;;;;;4.05;1.00;;;9.10;99.90;;;;;;4960604;28;20127;-73
2023/10/15 10:53:55;;;;;;;4.75;0.77;;;8.90;99.90;;;;;;4980590;28;20038;-73
2023/10/15 10:56:22;;;;;;;3.40;0.80;;;8.80;99.90;;;;;;4946572;28;20103;-73
2023/10/15 10:58:52;;;;;;;4.55;0.80;;;8.90;99.90;;;;;;4962853;28;20557;-73
2023/10/15 11:01:19;;;;;;;7.88;0.98;;;9.00;99.90;;;;;;4966014;28;20487;-72
2023/10/15 11:03:47;;;;;;;1.55;0.60;;;9.30;99.90;;;;;;4963627;28;20499;-73
2023/10/15 11:06:15;;;;;;;4.57;0.65;;;9.20;99.90;;;;;;4963396;28;20097;-73
2023/10/15 11:08:41;;;;;;;2.95;0.55;;;9.20;99.90;;;;;;4963271;28;20093;-71
2023/10/15 11:11:09;;;;;;;5.15;0.85;;;9.10;99.90;;;;;;4968210;28;20069;-73
2023/10/15 11:13:35;;;;;;;2.30;0.50;;;9.20;99.90;;;;;;4968934;28;20042;-74
2023/10/15 11:16:00;;;;;;;4.15;1.10;;;9.10;99.90;;;;;;4967204;28;20443;-73
2023/10/15 11:18:26;;;;;;;3.40;0.70;;;9.00;99.90;;;;;;4966294;28;20435;-73
2023/10/15 11:20:52;;;;;;;1.67;0.30;;;9.00;99.90;;;;;;4981303;28;20485;-74
2023/10/15 11:23:26;;;;;;;3.70;0.52;;;9.00;99.90;;;;;;4965691;28;20047;-73
2023/10/15 11:25:54;;;;;;;4.15;0.80;;;9.20;99.90;;;;;;4945921;28;20039;-73
2023/10/15 11:28:20;;;;;;;2.97;0.68;;;9.40;99.90;;;;;;4963950;28;20050;-73
2023/10/15 11:30:46;;;;;;;3.67;0.82;;;9.70;99.90;;;;;;4948118;28;20059;-73
2023/10/15 11:33:12;;;;;;;3.28;0.90;;;9.70;99.90;;;;;;4965863;28;20039;-77
2023/10/15 11:35:40;;;;;;;4.22;0.65;;;9.60;99.90;;;;;;4975984;28;20045;-67
2023/10/15 11:38:09;;;;;;;3.10;0.80;;;9.50;99.90;;;;;;4961696;28;20031;-68
2023/10/15 11:40:38;;;;;;;2.63;0.65;;;9.10;99.90;;;;;;4963572;28;20046;-70
2023/10/15 11:43:19;;;;;;;1.95;0.50;;;8.70;99.90;;;;;;4961709;28;20197;-70
2023/10/15 11:45:46;;;;;;;1.05;0.40;;;8.70;99.90;;;;;;4950684;28;20054;-70
2023/10/15 11:48:13;;;;;;;3.60;0.60;;;8.60;99.90;;;;;;4962336;28;20063;-71
2023/10/15 11:50:44;;;;;;;1.80;0.50;;;8.40;99.90;;;;;;4963727;28;20122;-70
2023/10/15 11:53:23;;;;;;;1.02;0.28;;;8.10;99.90;;;;;;4966159;28;20103;-71
2023/10/15 11:55:52;;;;;;;1.35;0.40;;;8.20;99.90;;;;;;4946379;28;20043;-70
2023/10/15 11:58:19;;;;;;;3.90;0.98;;;8.20;99.90;;;;;;4962572;28;20051;-70
2023/10/15 12:00:49;;;;;;;3.10;0.70;;;8.20;99.90;;;;;;4968243;28;20116;-70
2023/10/15 12:03:16;;;;;;;4.15;0.70;;;8.40;99.90;;;;;;4968326;28;20113;-70
2023/10/15 12:05:42;;;;;;;2.88;0.75;;;8.50;99.90;;;;;;4959612;28;20602;-70
2023/10/15 12:08:08;;;;;;;4.18;0.60;;;8.60;99.90;;;;;;4964792;28;20061;-70
2023/10/15 12:10:34;;;;;;;5.10;0.80;;;8.60;99.90;;;;;;4964972;28;20047;-69
2023/10/15 12:13:00;;;;;;;5.68;0.77;;;8.70;99.90;;;;;;4968422;28;20035;-69
2023/10/15 12:15:30;;;;;;;3.60;0.93;;;8.90;99.90;;;;;;4967916;28;20341;-69
2023/10/15 12:17:56;;;;;;;4.20;0.80;;;9.10;99.90;;;;;;4952999;28;20046;-70
2023/10/15 12:20:24;;;;;;;8.80;1.15;;;9.10;99.90;;;;;;4968989;28;20386;-73
2023/10/15 12:22:50;;;;;;;2.85;0.52;;;9.10;99.90;;;;;;4962607;28;20042;-68
2023/10/15 12:25:15;;;;;;;1.73;0.57;;;8.90;99.90;;;;;;4953099;28;21223;-68
2023/10/15 12:27:41;;;;;;;3.50;0.60;;;8.50;99.90;;;;;;4968047;28;20077;-70
2023/10/15 12:30:12;;;;;;;4.25;0.68;;;8.10;99.90;;;;;;4978409;28;20132;-68
2023/10/15 12:32:38;;;;;;;2.80;0.50;;;8.00;99.90;;;;;;4972929;28;20184;-70
2023/10/15 12:35:10;;;;;;;4.05;0.80;;;8.10;99.90;;;;;;4965868;28;20604;-70
2023/10/15 12:37:36;;;;;;;3.92;0.80;;;7.90;99.90;;;;;;4980888;28;20057;-70
2023/10/15 12:40:10;;;;;;;4.28;0.90;;;7.70;99.90;;;;;;4971334;28;20038;-69
2023/10/15 12:42:37;;;;;;;5.35;0.88;;;7.80;99.90;;;;;;4972704;28;20113;-69
2023/10/15 12:45:02;;;;;;;4.80;0.90;;;8.00;99.90;;;;;;4962236;28;20047;-69
2023/10/15 12:47:28;;;;;;;8.52;1.80;;;8.10;99.90;;;;;;4968710;28;20042;-69
2023/10/15 12:49:54;;;;;;;5.28;1.80;;;8.30;99.90;;;;;;4976043;28;20125;-70
2023/10/15 12:52:19;;;;;;;8.40;1.65;;;8.40;99.90;;;;;;4956902;28;20447;-70
2023/10/15 12:54:46;;;;;;;4.32;1.00;;;8.30;99.90;;;;;;4984918;28;20493;-69
2023/10/15 12:57:12;;;;;;;4.15;0.80;;;8.50;99.90;;;;;;4971633;28;20046;-70
2023/10/15 12:59:37;;;;;;;6.07;0.82;;;8.50;99.90;;;;;;4968434;28;20038;-69
2023/10/15 13:02:04;;;;;;;4.70;0.95;;;8.60;99.90;;;;;;4956002;28;20038;-70
2023/10/15 13:04:29;;;;;;;6.05;0.68;;;8.40;99.90;;;;;;4970877;28;20406;-69
2023/10/15 13:06:55;;;;;;;4.40;1.00;;;8.40;99.90;;;;;;4970366;28;20054;-70
2023/10/15 13:09:25;;;;;;;10.23;0.95;;;8.60;99.90;;;;;;4961686;28;20061;-70
2023/10/15 13:11:53;;;;;;;5.82;1.05;;;8.40;99.90;;;;;;4970257;28;20068;-69
2023/10/15 13:14:19;;;;;;;5.72;0.80;;;8.50;99.90;;;;;;4967009;28;20046;-69
2023/10/15 13:16:44;;;;;;;5.80;0.77;;;8.20;99.90;;;;;;4969951;28;20080;-71
2023/10/15 13:19:10;;;;;;;7.03;1.13;;;8.20;99.90;;;;;;4980600;28;20058;-71